Colombian Star — A8SL3 — position and weather

sailwx.info

Track history (hours):
 
Tides and Currents Weather Stations Pressure Air Temp Water Temp Dewpoint Dewpoint Depression Visibility Wind Speed Wind Dir Waves Ship Positions

Colombian Star

Last reported at 2018-Jun-11 11:55 UTC. Time now 2018-Jun-25 01:59 UTC.
Position N 27°40' W 016°25'.
Warning: this ship's position is 13 days out of date.

Length 185 m; draft 8.7 m.

Type: Cargo ship. MMSI: 636014240.

Date/timePositionNaut miles runAvg speedWind from/ knotsBaromVisibWave heightAir tempDewpointWater temp
2018-Jun-11 11:55N 27°40' W 016°25'817.3
2018-Jun-11 11:27N 27°48' W 016°23'3016.6
2018-Jun-11 09:39N 28°14' W 016°07'216.9
2018-Jun-11 09:30N 28°16' W 016°05'917.2
2018-Jun-11 09:01N 28°23' W 015°59'917.5
2018-Jun-11 08:31N 28°29' W 015°52'917.3
2018-Jun-11 08:00N 28°36' W 015°46'917.4
2018-Jun-11 07:31N 28°44' W 015°42'917.5
2018-Jun-11 07:00N 28°52' W 015°39'917.3
2018-Jun-11 06:30N 29°00' W 015°35'917.3
2018-Jun-11 06:00N 29°08' W 015°32'917.4
2018-Jun-11 05:30N 29°17' W 015°29'1417.6
2018-Jun-11 04:41N 29°31' W 015°25'517.6
2018-Jun-11 04:25N 29°35' W 015°23'1019.6
2018-Jun-11 03:56N 29°44' W 015°20'918.1
2018-Jun-11 03:27N 29°53' W 015°17'817.3
2018-Jun-11 02:59N 30°01' W 015°15'1017.2
2018-Jun-11 02:24N 30°10' W 015°12'717.4
2018-Jun-11 01:59N 30°17' W 015°10'917.5
2018-Jun-11 01:30N 30°25' W 015°07'917.4
2018-Jun-11 00:59N 30°34' W 015°04'1117.3
2018-Jun-11 00:21N 30°45' W 015°01'  
2018-Jun-08 03:20N 48°54' W 006°05'10116.3
2018-Jun-07 21:07N 49°42' W 003°49'517.0
2018-Jun-07 20:51N 49°44' W 003°42'1117.1
2018-Jun-07 20:11N 49°48' W 003°26'317.3
2018-Jun-07 20:00N 49°50' W 003°22'917.5
2018-Jun-07 19:30N 49°53' W 003°09'917.7
2018-Jun-07 19:00N 49°57' W 002°57'917.5
2018-Jun-07 18:30N 49°60' W 002°44'1017.4
2018-Jun-07 17:56N 50°03' W 002°29'1217.1
2018-Jun-07 17:14N 50°06' W 002°11'416.8
2018-Jun-07 16:59N 50°07' W 002°05'816.3
2018-Jun-07 16:30N 50°09' W 001°53'815.9
2018-Jun-07 16:00N 50°12' W 001°41'815.5
2018-Jun-07 15:30N 50°14' W 001°30'915.1
2018-Jun-07 14:54N 50°17' W 001°16'1415.0
2018-Jun-07 13:58N 50°20' W 000°55'1115.3
2018-Jun-07 13:14N 50°24' W 000°38'415.5
2018-Jun-07 13:01N 50°25' W 000°33'815.8
2018-Jun-07 12:31N 50°27' W 000°21'816.4
2018-Jun-07 12:00N 50°29' W 000°08'916.9
2018-Jun-07 11:29N 50°31' E 000°05'817.3
2018-Jun-07 11:00N 50°33' E 000°18'917.6
2018-Jun-07 10:30N 50°35' E 000°31'917.5
2018-Jun-07 10:01N 50°40' E 000°43'917.6
2018-Jun-07 09:31N 50°45' E 000°55'917.3
2018-Jun-07 08:59N 50°50' E 001°06'916.9
2018-Jun-07 08:29N 50°54' E 001°17'816.6
2018-Jun-07 08:00N 51°00' E 001°26'815.8
2018-Jun-07 07:31N 51°06' E 001°34'815.0
2018-Jun-07 07:01N 51°12' E 001°42'815.2
2018-Jun-07 06:30N 51°18' E 001°50'815.5
2018-Jun-07 06:01N 51°24' E 001°58'714.6
2018-Jun-07 05:31N 51°22' E 002°09'815.2
2018-Jun-07 04:59N 51°21' E 002°22'815.8
2018-Jun-07 04:30N 51°23' E 002°34'713.8
2018-Jun-07 04:00N 51°22' E 002°45'815.1
2018-Jun-07 03:30N 51°23' E 002°57'815.8
2018-Jun-07 03:00N 51°24' E 003°09'816.5
2018-Jun-07 02:30N 51°25' E 003°23'815.6
2018-Jun-07 02:01N 51°26' E 003°35'510.2
2018-Jun-07 01:30N 51°24' E 003°43'714.9
2018-Jun-07 01:00N 51°21' E 003°54'612.5
2018-Jun-07 00:30N 51°25' E 004°02'713.4
2018-Jun-07 00:00N 51°24' E 004°13'612.3
2018-Jun-06 23:31N 51°18' E 004°17'2 4.7
2018-Jun-06 23:01N 51°16' E 004°17'0 0.0
2018-Jun-06 22:31N 51°16' E 004°17'1 2.4
2018-Jun-06 22:00N 51°16' E 004°15'0 0.5
2018-Jun-06 21:25N 51°16' E 004°15'0 0.0
2018-Jun-06 20:58N 51°16' E 004°15'0 0.0
2018-Jun-06 20:22N 51°16' E 004°15'0 0.0
2018-Jun-06 19:58N 51°16' E 004°15'0 0.0
2018-Jun-06 19:25N 51°16' E 004°15'0 0.0
2018-Jun-06 18:55N 51°16' E 004°15'0 0.0
2018-Jun-06 18:28N 51°16' E 004°15'0 0.0
2018-Jun-06 17:58N 51°16' E 004°15'0 0.0
2018-Jun-06 17:25N 51°16' E 004°15'0 0.0
2018-Jun-06 16:58N 51°16' E 004°15'0 0.0
2018-Jun-06 16:28N 51°16' E 004°15'0 0.0
2018-Jun-06 15:58N 51°16' E 004°15'0 0.0
2018-Jun-06 15:25N 51°16' E 004°15'0 0.0
2018-Jun-06 14:55N 51°16' E 004°15'0 0.0
2018-Jun-06 14:28N 51°16' E 004°15'0 0.0
2018-Jun-06 13:58N 51°16' E 004°15'0 0.0
2018-Jun-06 13:28N 51°16' E 004°15'0 0.0
2018-Jun-06 12:58N 51°16' E 004°15'0 0.0
2018-Jun-06 12:28N 51°16' E 004°15'0 0.0
2018-Jun-06 11:58N 51°16' E 004°15'0 0.0
2018-Jun-06 11:28N 51°16' E 004°15'0 0.0
2018-Jun-06 10:58N 51°16' E 004°15'0 0.0
2018-Jun-06 10:28N 51°16' E 004°15'0 0.0
2018-Jun-06 09:58N 51°16' E 004°15'0 0.0
2018-Jun-06 09:28N 51°16' E 004°15'0 0.0
2018-Jun-06 08:55N 51°16' E 004°15'0 0.0
2018-Jun-06 08:28N 51°16' E 004°15'0 0.0
2018-Jun-06 07:55N 51°16' E 004°15'0 0.0
2018-Jun-06 07:28N 51°16' E 004°15'0 0.0
2018-Jun-06 06:58N 51°16' E 004°15'0 0.0
2018-Jun-06 06:28N 51°16' E 004°15'0 0.0
2018-Jun-06 05:58N 51°16' E 004°15'0 0.0
2018-Jun-06 05:28N 51°16' E 004°15'0 0.0
2018-Jun-06 04:58N 51°16' E 004°15'0 0.0
2018-Jun-06 04:28N 51°16' E 004°15'0 0.0
2018-Jun-06 03:58N 51°16' E 004°15'0 0.0
2018-Jun-06 03:28N 51°16' E 004°15'0 0.0
2018-Jun-06 02:58N 51°16' E 004°15'0 0.0
2018-Jun-06 02:25N 51°16' E 004°15'0 0.0
2018-Jun-06 01:58N 51°16' E 004°15'0 0.0
2018-Jun-06 01:28N 51°16' E 004°15'0 0.0
2018-Jun-06 00:58N 51°16' E 004°15'0 0.0
2018-Jun-06 00:25N 51°16' E 004°15'0 0.0
2018-Jun-05 23:58N 51°16' E 004°15'0 0.0
2018-Jun-05 23:28N 51°16' E 004°15'0 0.0
2018-Jun-05 22:58N 51°16' E 004°15'0 0.0
2018-Jun-05 22:28N 51°16' E 004°15'0 0.0
2018-Jun-05 21:58N 51°16' E 004°15'0 0.0
2018-Jun-05 21:28N 51°16' E 004°15'0 0.0
2018-Jun-05 20:58N 51°16' E 004°15'0 0.0
2018-Jun-05 20:25N 51°16' E 004°15'0 0.0
2018-Jun-05 19:58N 51°16' E 004°15'0 0.0
2018-Jun-05 19:25N 51°16' E 004°15'0 0.0
2018-Jun-05 18:58N 51°16' E 004°15'0 0.0
2018-Jun-05 18:28N 51°16' E 004°15'0 0.0
2018-Jun-05 17:58N 51°16' E 004°15'0 0.0
2018-Jun-05 17:25N 51°16' E 004°15'0 0.0
2018-Jun-05 16:58N 51°16' E 004°15'0 0.0
2018-Jun-05 16:28N 51°16' E 004°15'0 0.0
2018-Jun-05 15:58N 51°16' E 004°15'0 0.0
2018-Jun-05 15:28N 51°16' E 004°15'0 0.0
2018-Jun-05 14:58N 51°16' E 004°15'0 0.0
2018-Jun-05 14:28N 51°16' E 004°15'0 0.0
2018-Jun-05 13:58N 51°16' E 004°15'0 0.0
2018-Jun-05 13:28N 51°16' E 004°15'0 0.0
2018-Jun-05 12:58N 51°16' E 004°15'0 0.0
2018-Jun-05 12:28N 51°16' E 004°15'0 0.0
2018-Jun-05 11:55N 51°16' E 004°15'0 0.0
2018-Jun-05 11:28N 51°16' E 004°15'0 0.0
2018-Jun-05 10:58N 51°16' E 004°15'0 0.0
2018-Jun-05 10:28N 51°16' E 004°15'0 0.0
2018-Jun-05 09:58N 51°16' E 004°15'0 0.0
2018-Jun-05 09:28N 51°16' E 004°15'0 0.0
2018-Jun-05 08:58N 51°16' E 004°15'0 0.0
2018-Jun-05 08:28N 51°16' E 004°15'0 0.0
2018-Jun-05 07:58N 51°16' E 004°15'0 0.0
2018-Jun-05 07:28N 51°16' E 004°15'0 0.0
2018-Jun-05 06:58N 51°16' E 004°15'0 0.0
2018-Jun-05 06:25N 51°16' E 004°15'0 0.0
2018-Jun-05 05:58N 51°16' E 004°15'0 0.0
2018-Jun-05 05:28N 51°16' E 004°15'0 0.0
2018-Jun-05 04:58N 51°16' E 004°15'0 0.0
2018-Jun-05 04:28N 51°16' E 004°15'0 0.0
2018-Jun-05 03:58N 51°16' E 004°15'0 0.0
2018-Jun-05 03:28N 51°16' E 004°15'0 0.0
2018-Jun-05 02:58N 51°16' E 004°15'0 0.0
2018-Jun-05 02:28N 51°16' E 004°15'0 0.0
2018-Jun-05 01:58N 51°16' E 004°15'0 0.0
2018-Jun-05 01:28N 51°16' E 004°15'0 0.0
2018-Jun-05 00:58N 51°16' E 004°15'0 0.0
2018-Jun-05 00:28N 51°16' E 004°15'0 0.0
2018-Jun-04 23:58N 51°16' E 004°15'0 0.0
2018-Jun-04 23:28N 51°16' E 004°15'0 0.0
2018-Jun-04 22:58N 51°16' E 004°15'0 0.0
2018-Jun-04 22:28N 51°16' E 004°15'0 0.0
2018-Jun-04 21:58N 51°16' E 004°15'0 0.0
2018-Jun-04 21:28N 51°16' E 004°15'0 0.0
2018-Jun-04 20:58N 51°16' E 004°15'0 0.0
2018-Jun-04 20:28N 51°16' E 004°15'0 0.0
2018-Jun-04 19:58N 51°16' E 004°15'0 0.0
2018-Jun-04 19:28N 51°16' E 004°15'0 0.0
2018-Jun-04 18:58N 51°16' E 004°15'0 0.0
2018-Jun-04 18:28N 51°16' E 004°15'0 0.0
2018-Jun-04 17:58N 51°16' E 004°15'0 0.0
2018-Jun-04 17:28N 51°16' E 004°15'0 0.0
2018-Jun-04 16:58N 51°16' E 004°15'0 0.0
2018-Jun-04 16:28N 51°16' E 004°15'0 0.0
2018-Jun-04 15:58N 51°16' E 004°15'0 0.0
2018-Jun-04 15:28N 51°16' E 004°15'0 0.0
2018-Jun-04 14:58N 51°16' E 004°15'0 0.0
2018-Jun-04 14:28N 51°16' E 004°15'0 0.0
2018-Jun-04 13:55N 51°16' E 004°15'0 0.0
2018-Jun-04 13:28N 51°16' E 004°15'0 0.0
2018-Jun-04 12:58N 51°16' E 004°15'0 0.0
2018-Jun-04 12:28N 51°16' E 004°15'0 0.0
2018-Jun-04 11:58N 51°16' E 004°15'0 0.0
2018-Jun-04 11:28N 51°16' E 004°15'0 0.0
2018-Jun-04 10:58N 51°16' E 004°15'0 0.0
2018-Jun-04 10:28N 51°16' E 004°15'0 0.0
2018-Jun-04 09:55N 51°16' E 004°15'0 0.0
2018-Jun-04 09:28N 51°16' E 004°15'0 0.0
2018-Jun-04 08:58N 51°16' E 004°15'0 0.0
2018-Jun-04 08:28N 51°16' E 004°15'0 0.0
2018-Jun-04 07:58N 51°16' E 004°15'0 0.0
2018-Jun-04 07:25N 51°16' E 004°15'0 0.0
2018-Jun-04 06:58N 51°16' E 004°15'0 0.0
2018-Jun-04 06:25N 51°16' E 004°15'0 0.0
2018-Jun-04 05:52N 51°16' E 004°15'0 0.0
2018-Jun-04 05:28N 51°16' E 004°15'0 0.0
2018-Jun-04 04:58N 51°16' E 004°15'0 0.0
2018-Jun-04 04:28N 51°16' E 004°15'0 0.0
2018-Jun-04 03:55N 51°16' E 004°15'0 0.0
2018-Jun-04 03:28N 51°16' E 004°15'0 0.0
2018-Jun-04 02:58N 51°16' E 004°15'0 0.0
2018-Jun-04 02:28N 51°16' E 004°15'0 0.0
2018-Jun-04 01:58N 51°16' E 004°15'0 0.0
2018-Jun-04 01:28N 51°16' E 004°15'0 0.0
2018-Jun-04 00:58N 51°16' E 004°15'0 0.0
2018-Jun-04 00:28N 51°16' E 004°15'0 0.0
2018-Jun-03 23:58N 51°16' E 004°15'0 0.0
2018-Jun-03 23:30N 51°16' E 004°15'1 1.9
2018-Jun-03 23:00N 51°17' E 004°15'0 0.0
2018-Jun-03 22:30N 51°17' E 004°15'2 3.5
2018-Jun-03 22:00N 51°18' E 004°16'4 7.5
2018-Jun-03 21:30N 51°22' E 004°14'4 7.4
2018-Jun-03 21:00N 51°22' E 004°08'5 9.6
2018-Jun-03 20:31N 51°25' E 004°02'5 9.1
2018-Jun-03 20:01N 51°22' E 003°56'611.2
2018-Jun-03 19:30N 51°21' E 003°47'611.8
2018-Jun-03 19:01N 51°26' E 003°41'5 9.5
2018-Jun-03 18:30N 51°25' E 003°33'5 9.1
2018-Jun-03 18:00N 51°25' E 003°26'713.0
2018-Jun-03 17:30N 51°25' E 003°16'713.4
2018-Jun-03 17:00N 51°24' E 003°05'713.5
2018-Jun-03 16:31N 51°22' E 002°55'714.2
2018-Jun-03 16:00N 51°22' E 002°43'510.4
2018-Jun-03 15:30N 51°22' E 002°35'510.7
2018-Jun-03 15:00N 51°21' E 002°27'816.2
2018-Jun-03 14:30N 51°16' E 002°16'1019.8
2018-Jun-03 14:00N 51°11' E 002°02'1019.8
2018-Jun-03 13:30N 51°07' E 001°48'1020.1
2018-Jun-03 13:00N 50°60' E 001°37'1019.1
2018-Jun-03 12:30N 50°51' E 001°29'1019.1
2018-Jun-03 12:00N 50°42' E 001°24'1419.2
2018-Jun-03 11:17N 50°33' E 001°08'519.7
2018-Jun-03 11:00N 50°29' E 001°02'1019.7
2018-Jun-03 10:30N 50°26' E 000°47'1020.0
2018-Jun-03 10:00N 50°24' E 000°32'1220.0
2018-Jun-03 09:24N 50°21' E 000°14'819.2
2018-Jun-03 09:00N 50°20' E 000°02'1019.4
2018-Jun-03 08:30N 50°22' W 000°13'1019.2
2018-Jun-03 08:00N 50°26' W 000°27'918.9
2018-Jun-03 07:31N 50°31' W 000°40'918.6
2018-Jun-03 07:00N 50°35' W 000°53'714.0
2018-Jun-03 06:30N 50°41' W 000°58'612.0
2018-Jun-03 06:00N 50°45' W 001°05'4 7.0
2018-Jun-03 05:30N 50°49' W 001°06'0 0.5
2018-Jun-03 05:00N 50°49' W 001°05'0 0.0
2018-Jun-03 04:28N 50°49' W 001°05'0 0.0
2018-Jun-03 03:58N 50°49' W 001°05'0 0.0
2018-Jun-03 03:28N 50°49' W 001°05'0 0.0
2018-Jun-03 02:58N 50°49' W 001°05'0 0.0
2018-Jun-03 02:28N 50°49' W 001°05'0 0.0
2018-Jun-03 01:58N 50°49' W 001°05'0 0.0
2018-Jun-03 01:28N 50°49' W 001°05'0 0.0
2018-Jun-03 00:58N 50°49' W 001°05'0 0.0
2018-Jun-03 00:28N 50°49' W 001°05'0 0.0
2018-Jun-02 23:58N 50°49' W 001°05'0 0.0
2018-Jun-02 23:28N 50°49' W 001°05'0 0.0
2018-Jun-02 22:58N 50°49' W 001°05'0 0.0
2018-Jun-02 22:28N 50°49' W 001°05'0 0.0
2018-Jun-02 21:58N 50°49' W 001°05'0 0.0
2018-Jun-02 21:28N 50°49' W 001°05'0 0.0
2018-Jun-02 20:58N 50°49' W 001°05'0 0.0
2018-Jun-02 20:28N 50°49' W 001°05'0 0.0
2018-Jun-02 19:58N 50°49' W 001°05'0 0.0
2018-Jun-02 19:28N 50°49' W 001°05'0 0.0
2018-Jun-02 18:58N 50°49' W 001°05'0 0.0
2018-Jun-02 18:28N 50°49' W 001°05'0 0.0
2018-Jun-02 17:58N 50°49' W 001°05'0 0.0
2018-Jun-02 17:28N 50°49' W 001°05'0 0.0
2018-Jun-02 16:58N 50°49' W 001°05'0 0.0
2018-Jun-02 16:28N 50°49' W 001°05'0 0.0
2018-Jun-02 15:58N 50°49' W 001°05'0 0.0
2018-Jun-02 15:28N 50°49' W 001°05'0 0.0
2018-Jun-02 14:58N 50°49' W 001°05'0 0.0
2018-Jun-02 14:28N 50°49' W 001°05'0 0.0
2018-Jun-02 13:58N 50°49' W 001°05'0 0.0
2018-Jun-02 13:28N 50°49' W 001°05'0 0.0
2018-Jun-02 12:58N 50°49' W 001°05'0 0.0
2018-Jun-02 12:28N 50°49' W 001°05'0 0.0
2018-Jun-02 11:58N 50°49' W 001°05'1 1.4
2018-Jun-02 11:30N 50°49' W 001°06'4 8.1
2018-Jun-02 11:00N 50°45' W 001°05'510.7
2018-Jun-02 10:30N 50°41' W 000°58'611.5
2018-Jun-02 10:00N 50°36' W 000°59'612.4
2018-Jun-02 09:30N 50°30' W 001°02'816.3
2018-Jun-02 09:00N 50°27' W 001°15'815.9
2018-Jun-02 08:30N 50°25' W 001°27'511.0
2018-Jun-02 08:00N 50°24' W 001°35'713.4
2018-Jun-02 07:30N 50°23' W 001°46'713.8
2018-Jun-02 07:01N 50°22' W 001°56'815.4
2018-Jun-02 06:30N 50°20' W 002°08'815.8
2018-Jun-02 06:00N 50°18' W 002°20'815.4
2018-Jun-02 05:30N 50°16' W 002°31'715.1
2018-Jun-02 05:00N 50°15' W 002°43'815.3
2018-Jun-02 04:30N 50°14' W 002°55'715.0
2018-Jun-02 04:00N 50°11' W 003°06'815.1
2018-Jun-02 03:30N 50°07' W 003°16'715.0
2018-Jun-02 03:00N 50°04' W 003°27'814.9
2018-Jun-02 02:30N 50°00' W 003°37'815.3
2018-Jun-02 01:59N 49°57' W 003°48'715.5
2018-Jun-02 01:30N 49°53' W 003°58'815.6
2018-Jun-02 01:00N 49°49' W 004°08'915.5
2018-Jun-02 00:24N 49°44' W 004°20'1015.6
2018-Jun-01 23:45N 49°38' W 004°33'515.7
2018-Jun-01 23:26N 49°35' W 004°39'715.8
2018-Jun-01 22:58N 49°31' W 004°49'715.9
2018-Jun-01 22:30N 49°27' W 004°59'815.9
2018-Jun-01 22:00N 49°23' W 005°09'916.2
2018-Jun-01 21:27N 49°18' W 005°20'  
Track history (hours):
 
Tides and Currents Weather Stations Pressure Air Temp Water Temp Dewpoint Dewpoint Depression Visibility Wind Speed Wind Dir Waves Ship Positions

Colombian Star

Last reported at 2018-Jun-11 11:55 UTC. Time now 2018-Jun-25 01:59 UTC.
Position N 27°40' W 016°25'.
Warning: this ship's position is 13 days out of date.

Length 185 m; draft 8.7 m.

Type: Cargo ship. MMSI: 636014240.

Date/timePositionNaut miles runAvg speedWind from/ knotsBaromVisibWave heightAir tempDewpointWater temp
2018-Jun-11 11:55N 27°40' W 016°25'817.3
2018-Jun-11 11:27N 27°48' W 016°23'3016.6
2018-Jun-11 09:39N 28°14' W 016°07'216.9
2018-Jun-11 09:30N 28°16' W 016°05'917.2
2018-Jun-11 09:01N 28°23' W 015°59'917.5
2018-Jun-11 08:31N 28°29' W 015°52'917.3
2018-Jun-11 08:00N 28°36' W 015°46'917.4
2018-Jun-11 07:31N 28°44' W 015°42'917.5
2018-Jun-11 07:00N 28°52' W 015°39'917.3
2018-Jun-11 06:30N 29°00' W 015°35'917.3
2018-Jun-11 06:00N 29°08' W 015°32'917.4
2018-Jun-11 05:30N 29°17' W 015°29'1417.6
2018-Jun-11 04:41N 29°31' W 015°25'517.6
2018-Jun-11 04:25N 29°35' W 015°23'1019.6
2018-Jun-11 03:56N 29°44' W 015°20'918.1
2018-Jun-11 03:27N 29°53' W 015°17'817.3
2018-Jun-11 02:59N 30°01' W 015°15'1017.2
2018-Jun-11 02:24N 30°10' W 015°12'717.4
2018-Jun-11 01:59N 30°17' W 015°10'917.5
2018-Jun-11 01:30N 30°25' W 015°07'917.4
2018-Jun-11 00:59N 30°34' W 015°04'1117.3
2018-Jun-11 00:21N 30°45' W 015°01'  
2018-Jun-08 03:20N 48°54' W 006°05'10116.3
2018-Jun-07 21:07N 49°42' W 003°49'517.0
2018-Jun-07 20:51N 49°44' W 003°42'1117.1
2018-Jun-07 20:11N 49°48' W 003°26'317.3
2018-Jun-07 20:00N 49°50' W 003°22'917.5
2018-Jun-07 19:30N 49°53' W 003°09'917.7
2018-Jun-07 19:00N 49°57' W 002°57'917.5
2018-Jun-07 18:30N 49°60' W 002°44'1017.4
2018-Jun-07 17:56N 50°03' W 002°29'1217.1
2018-Jun-07 17:14N 50°06' W 002°11'416.8
2018-Jun-07 16:59N 50°07' W 002°05'816.3
2018-Jun-07 16:30N 50°09' W 001°53'815.9
2018-Jun-07 16:00N 50°12' W 001°41'815.5
2018-Jun-07 15:30N 50°14' W 001°30'915.1
2018-Jun-07 14:54N 50°17' W 001°16'1415.0
2018-Jun-07 13:58N 50°20' W 000°55'1115.3
2018-Jun-07 13:14N 50°24' W 000°38'415.5
2018-Jun-07 13:01N 50°25' W 000°33'815.8
2018-Jun-07 12:31N 50°27' W 000°21'816.4
2018-Jun-07 12:00N 50°29' W 000°08'916.9
2018-Jun-07 11:29N 50°31' E 000°05'817.3
2018-Jun-07 11:00N 50°33' E 000°18'917.6
2018-Jun-07 10:30N 50°35' E 000°31'917.5
2018-Jun-07 10:01N 50°40' E 000°43'917.6
2018-Jun-07 09:31N 50°45' E 000°55'917.3
2018-Jun-07 08:59N 50°50' E 001°06'916.9
2018-Jun-07 08:29N 50°54' E 001°17'816.6
2018-Jun-07 08:00N 51°00' E 001°26'815.8
2018-Jun-07 07:31N 51°06' E 001°34'815.0
2018-Jun-07 07:01N 51°12' E 001°42'815.2
2018-Jun-07 06:30N 51°18' E 001°50'815.5
2018-Jun-07 06:01N 51°24' E 001°58'714.6
2018-Jun-07 05:31N 51°22' E 002°09'815.2
2018-Jun-07 04:59N 51°21' E 002°22'815.8
2018-Jun-07 04:30N 51°23' E 002°34'713.8
2018-Jun-07 04:00N 51°22' E 002°45'815.1
2018-Jun-07 03:30N 51°23' E 002°57'815.8
2018-Jun-07 03:00N 51°24' E 003°09'816.5
2018-Jun-07 02:30N 51°25' E 003°23'815.6
2018-Jun-07 02:01N 51°26' E 003°35'510.2
2018-Jun-07 01:30N 51°24' E 003°43'714.9
2018-Jun-07 01:00N 51°21' E 003°54'612.5
2018-Jun-07 00:30N 51°25' E 004°02'713.4
2018-Jun-07 00:00N 51°24' E 004°13'612.3
2018-Jun-06 23:31N 51°18' E 004°17'2 4.7
2018-Jun-06 23:01N 51°16' E 004°17'0 0.0
2018-Jun-06 22:31N 51°16' E 004°17'1 2.4
2018-Jun-06 22:00N 51°16' E 004°15'0 0.5
2018-Jun-06 21:25N 51°16' E 004°15'0 0.0
2018-Jun-06 20:58N 51°16' E 004°15'0 0.0
2018-Jun-06 20:22N 51°16' E 004°15'0 0.0
2018-Jun-06 19:58N 51°16' E 004°15'0 0.0
2018-Jun-06 19:25N 51°16' E 004°15'0 0.0
2018-Jun-06 18:55N 51°16' E 004°15'0 0.0
2018-Jun-06 18:28N 51°16' E 004°15'0 0.0
2018-Jun-06 17:58N 51°16' E 004°15'0 0.0
2018-Jun-06 17:25N 51°16' E 004°15'0 0.0
2018-Jun-06 16:58N 51°16' E 004°15'0 0.0
2018-Jun-06 16:28N 51°16' E 004°15'0 0.0
2018-Jun-06 15:58N 51°16' E 004°15'0 0.0
2018-Jun-06 15:25N 51°16' E 004°15'0 0.0
2018-Jun-06 14:55N 51°16' E 004°15'0 0.0
2018-Jun-06 14:28N 51°16' E 004°15'0 0.0
2018-Jun-06 13:58N 51°16' E 004°15'0 0.0
2018-Jun-06 13:28N 51°16' E 004°15'0 0.0
2018-Jun-06 12:58N 51°16' E 004°15'0 0.0
2018-Jun-06 12:28N 51°16' E 004°15'0 0.0
2018-Jun-06 11:58N 51°16' E 004°15'0 0.0
2018-Jun-06 11:28N 51°16' E 004°15'0 0.0
2018-Jun-06 10:58N 51°16' E 004°15'0 0.0
2018-Jun-06 10:28N 51°16' E 004°15'0 0.0
2018-Jun-06 09:58N 51°16' E 004°15'0 0.0
2018-Jun-06 09:28N 51°16' E 004°15'0 0.0
2018-Jun-06 08:55N 51°16' E 004°15'0 0.0
2018-Jun-06 08:28N 51°16' E 004°15'0 0.0
2018-Jun-06 07:55N 51°16' E 004°15'0 0.0
2018-Jun-06 07:28N 51°16' E 004°15'0 0.0
2018-Jun-06 06:58N 51°16' E 004°15'0 0.0
2018-Jun-06 06:28N 51°16' E 004°15'0 0.0
2018-Jun-06 05:58N 51°16' E 004°15'0 0.0
2018-Jun-06 05:28N 51°16' E 004°15'0 0.0
2018-Jun-06 04:58N 51°16' E 004°15'0 0.0
2018-Jun-06 04:28N 51°16' E 004°15'0 0.0
2018-Jun-06 03:58N 51°16' E 004°15'0 0.0
2018-Jun-06 03:28N 51°16' E 004°15'0 0.0
2018-Jun-06 02:58N 51°16' E 004°15'0 0.0
2018-Jun-06 02:25N 51°16' E 004°15'0 0.0
2018-Jun-06 01:58N 51°16' E 004°15'0 0.0
2018-Jun-06 01:28N 51°16' E 004°15'0 0.0
2018-Jun-06 00:58N 51°16' E 004°15'0 0.0
2018-Jun-06 00:25N 51°16' E 004°15'0 0.0
2018-Jun-05 23:58N 51°16' E 004°15'0 0.0
2018-Jun-05 23:28N 51°16' E 004°15'0 0.0
2018-Jun-05 22:58N 51°16' E 004°15'0 0.0
2018-Jun-05 22:28N 51°16' E 004°15'0 0.0
2018-Jun-05 21:58N 51°16' E 004°15'0 0.0
2018-Jun-05 21:28N 51°16' E 004°15'0 0.0
2018-Jun-05 20:58N 51°16' E 004°15'0 0.0
2018-Jun-05 20:25N 51°16' E 004°15'0 0.0
2018-Jun-05 19:58N 51°16' E 004°15'0 0.0
2018-Jun-05 19:25N 51°16' E 004°15'0 0.0
2018-Jun-05 18:58N 51°16' E 004°15'0 0.0
2018-Jun-05 18:28N 51°16' E 004°15'0 0.0
2018-Jun-05 17:58N 51°16' E 004°15'0 0.0
2018-Jun-05 17:25N 51°16' E 004°15'0 0.0
2018-Jun-05 16:58N 51°16' E 004°15'0 0.0
2018-Jun-05 16:28N 51°16' E 004°15'0 0.0
2018-Jun-05 15:58N 51°16' E 004°15'0 0.0
2018-Jun-05 15:28N 51°16' E 004°15'0 0.0
2018-Jun-05 14:58N 51°16' E 004°15'0 0.0
2018-Jun-05 14:28N 51°16' E 004°15'0 0.0
2018-Jun-05 13:58N 51°16' E 004°15'0 0.0
2018-Jun-05 13:28N 51°16' E 004°15'0 0.0
2018-Jun-05 12:58N 51°16' E 004°15'0 0.0
2018-Jun-05 12:28N 51°16' E 004°15'0 0.0
2018-Jun-05 11:55N 51°16' E 004°15'0 0.0
2018-Jun-05 11:28N 51°16' E 004°15'0 0.0
2018-Jun-05 10:58N 51°16' E 004°15'0 0.0
2018-Jun-05 10:28N 51°16' E 004°15'0 0.0
2018-Jun-05 09:58N 51°16' E 004°15'0 0.0
2018-Jun-05 09:28N 51°16' E 004°15'0 0.0
2018-Jun-05 08:58N 51°16' E 004°15'0 0.0
2018-Jun-05 08:28N 51°16' E 004°15'0 0.0
2018-Jun-05 07:58N 51°16' E 004°15'0 0.0
2018-Jun-05 07:28N 51°16' E 004°15'0 0.0
2018-Jun-05 06:58N 51°16' E 004°15'0 0.0
2018-Jun-05 06:25N 51°16' E 004°15'0 0.0
2018-Jun-05 05:58N 51°16' E 004°15'0 0.0
2018-Jun-05 05:28N 51°16' E 004°15'0 0.0
2018-Jun-05 04:58N 51°16' E 004°15'0 0.0
2018-Jun-05 04:28N 51°16' E 004°15'0 0.0
2018-Jun-05 03:58N 51°16' E 004°15'0 0.0
2018-Jun-05 03:28N 51°16' E 004°15'0 0.0
2018-Jun-05 02:58N 51°16' E 004°15'0 0.0
2018-Jun-05 02:28N 51°16' E 004°15'0 0.0
2018-Jun-05 01:58N 51°16' E 004°15'0 0.0
2018-Jun-05 01:28N 51°16' E 004°15'0 0.0
2018-Jun-05 00:58N 51°16' E 004°15'0 0.0
2018-Jun-05 00:28N 51°16' E 004°15'0 0.0
2018-Jun-04 23:58N 51°16' E 004°15'0 0.0
2018-Jun-04 23:28N 51°16' E 004°15'0 0.0
2018-Jun-04 22:58N 51°16' E 004°15'0 0.0
2018-Jun-04 22:28N 51°16' E 004°15'0 0.0
2018-Jun-04 21:58N 51°16' E 004°15'0 0.0
2018-Jun-04 21:28N 51°16' E 004°15'0 0.0
2018-Jun-04 20:58N 51°16' E 004°15'0 0.0
2018-Jun-04 20:28N 51°16' E 004°15'0 0.0
2018-Jun-04 19:58N 51°16' E 004°15'0 0.0
2018-Jun-04 19:28N 51°16' E 004°15'0 0.0
2018-Jun-04 18:58N 51°16' E 004°15'0 0.0
2018-Jun-04 18:28N 51°16' E 004°15'0 0.0
2018-Jun-04 17:58N 51°16' E 004°15'0 0.0
2018-Jun-04 17:28N 51°16' E 004°15'0 0.0
2018-Jun-04 16:58N 51°16' E 004°15'0 0.0
2018-Jun-04 16:28N 51°16' E 004°15'0 0.0
2018-Jun-04 15:58N 51°16' E 004°15'0 0.0
2018-Jun-04 15:28N 51°16' E 004°15'0 0.0
2018-Jun-04 14:58N 51°16' E 004°15'0 0.0
2018-Jun-04 14:28N 51°16' E 004°15'0 0.0
2018-Jun-04 13:55N 51°16' E 004°15'0 0.0
2018-Jun-04 13:28N 51°16' E 004°15'0 0.0
2018-Jun-04 12:58N 51°16' E 004°15'0 0.0
2018-Jun-04 12:28N 51°16' E 004°15'0 0.0
2018-Jun-04 11:58N 51°16' E 004°15'0 0.0
2018-Jun-04 11:28N 51°16' E 004°15'0 0.0
2018-Jun-04 10:58N 51°16' E 004°15'0 0.0
2018-Jun-04 10:28N 51°16' E 004°15'0 0.0
2018-Jun-04 09:55N 51°16' E 004°15'0 0.0
2018-Jun-04 09:28N 51°16' E 004°15'0 0.0
2018-Jun-04 08:58N 51°16' E 004°15'0 0.0
2018-Jun-04 08:28N 51°16' E 004°15'0 0.0
2018-Jun-04 07:58N 51°16' E 004°15'0 0.0
2018-Jun-04 07:25N 51°16' E 004°15'0 0.0
2018-Jun-04 06:58N 51°16' E 004°15'0 0.0
2018-Jun-04 06:25N 51°16' E 004°15'0 0.0
2018-Jun-04 05:52N 51°16' E 004°15'0 0.0
2018-Jun-04 05:28N 51°16' E 004°15'0 0.0
2018-Jun-04 04:58N 51°16' E 004°15'0 0.0
2018-Jun-04 04:28N 51°16' E 004°15'0 0.0
2018-Jun-04 03:55N 51°16' E 004°15'0 0.0
2018-Jun-04 03:28N 51°16' E 004°15'0 0.0
2018-Jun-04 02:58N 51°16' E 004°15'0 0.0
2018-Jun-04 02:28N 51°16' E 004°15'0 0.0
2018-Jun-04 01:58N 51°16' E 004°15'0 0.0
2018-Jun-04 01:28N 51°16' E 004°15'0 0.0
2018-Jun-04 00:58N 51°16' E 004°15'0 0.0
2018-Jun-04 00:28N 51°16' E 004°15'0 0.0
2018-Jun-03 23:58N 51°16' E 004°15'0 0.0
2018-Jun-03 23:30N 51°16' E 004°15'1 1.9
2018-Jun-03 23:00N 51°17' E 004°15'0 0.0
2018-Jun-03 22:30N 51°17' E 004°15'2 3.5
2018-Jun-03 22:00N 51°18' E 004°16'4 7.5
2018-Jun-03 21:30N 51°22' E 004°14'4 7.4
2018-Jun-03 21:00N 51°22' E 004°08'5 9.6
2018-Jun-03 20:31N 51°25' E 004°02'5 9.1
2018-Jun-03 20:01N 51°22' E 003°56'611.2
2018-Jun-03 19:30N 51°21' E 003°47'611.8
2018-Jun-03 19:01N 51°26' E 003°41'5 9.5
2018-Jun-03 18:30N 51°25' E 003°33'5 9.1
2018-Jun-03 18:00N 51°25' E 003°26'713.0
2018-Jun-03 17:30N 51°25' E 003°16'713.4
2018-Jun-03 17:00N 51°24' E 003°05'713.5
2018-Jun-03 16:31N 51°22' E 002°55'714.2
2018-Jun-03 16:00N 51°22' E 002°43'510.4
2018-Jun-03 15:30N 51°22' E 002°35'510.7
2018-Jun-03 15:00N 51°21' E 002°27'816.2
2018-Jun-03 14:30N 51°16' E 002°16'1019.8
2018-Jun-03 14:00N 51°11' E 002°02'1019.8
2018-Jun-03 13:30N 51°07' E 001°48'1020.1
2018-Jun-03 13:00N 50°60' E 001°37'1019.1
2018-Jun-03 12:30N 50°51' E 001°29'1019.1
2018-Jun-03 12:00N 50°42' E 001°24'1419.2
2018-Jun-03 11:17N 50°33' E 001°08'519.7
2018-Jun-03 11:00N 50°29' E 001°02'1019.7
2018-Jun-03 10:30N 50°26' E 000°47'1020.0
2018-Jun-03 10:00N 50°24' E 000°32'1220.0
2018-Jun-03 09:24N 50°21' E 000°14'819.2
2018-Jun-03 09:00N 50°20' E 000°02'1019.4
2018-Jun-03 08:30N 50°22' W 000°13'1019.2
2018-Jun-03 08:00N 50°26' W 000°27'918.9
2018-Jun-03 07:31N 50°31' W 000°40'918.6
2018-Jun-03 07:00N 50°35' W 000°53'714.0
2018-Jun-03 06:30N 50°41' W 000°58'612.0
2018-Jun-03 06:00N 50°45' W 001°05'4 7.0
2018-Jun-03 05:30N 50°49' W 001°06'0 0.5
2018-Jun-03 05:00N 50°49' W 001°05'0 0.0
2018-Jun-03 04:28N 50°49' W 001°05'0 0.0
2018-Jun-03 03:58N 50°49' W 001°05'0 0.0
2018-Jun-03 03:28N 50°49' W 001°05'0 0.0
2018-Jun-03 02:58N 50°49' W 001°05'0 0.0
2018-Jun-03 02:28N 50°49' W 001°05'0 0.0
2018-Jun-03 01:58N 50°49' W 001°05'0 0.0
2018-Jun-03 01:28N 50°49' W 001°05'0 0.0
2018-Jun-03 00:58N 50°49' W 001°05'0 0.0
2018-Jun-03 00:28N 50°49' W 001°05'0 0.0
2018-Jun-02 23:58N 50°49' W 001°05'0 0.0
2018-Jun-02 23:28N 50°49' W 001°05'0 0.0
2018-Jun-02 22:58N 50°49' W 001°05'0 0.0
2018-Jun-02 22:28N 50°49' W 001°05'0 0.0
2018-Jun-02 21:58N 50°49' W 001°05'0 0.0
2018-Jun-02 21:28N 50°49' W 001°05'0 0.0
2018-Jun-02 20:58N 50°49' W 001°05'0 0.0
2018-Jun-02 20:28N 50°49' W 001°05'0 0.0
2018-Jun-02 19:58N 50°49' W 001°05'0 0.0
2018-Jun-02 19:28N 50°49' W 001°05'0 0.0
2018-Jun-02 18:58N 50°49' W 001°05'0 0.0
2018-Jun-02 18:28N 50°49' W 001°05'0 0.0
2018-Jun-02 17:58N 50°49' W 001°05'0 0.0
2018-Jun-02 17:28N 50°49' W 001°05'0 0.0
2018-Jun-02 16:58N 50°49' W 001°05'0 0.0
2018-Jun-02 16:28N 50°49' W 001°05'0 0.0
2018-Jun-02 15:58N 50°49' W 001°05'0 0.0
2018-Jun-02 15:28N 50°49' W 001°05'0 0.0
2018-Jun-02 14:58N 50°49' W 001°05'0 0.0
2018-Jun-02 14:28N 50°49' W 001°05'0 0.0
2018-Jun-02 13:58N 50°49' W 001°05'0 0.0
2018-Jun-02 13:28N 50°49' W 001°05'0 0.0
2018-Jun-02 12:58N 50°49' W 001°05'0 0.0
2018-Jun-02 12:28N 50°49' W 001°05'0 0.0
2018-Jun-02 11:58N 50°49' W 001°05'1 1.4
2018-Jun-02 11:30N 50°49' W 001°06'4 8.1
2018-Jun-02 11:00N 50°45' W 001°05'510.7
2018-Jun-02 10:30N 50°41' W 000°58'611.5
2018-Jun-02 10:00N 50°36' W 000°59'612.4
2018-Jun-02 09:30N 50°30' W 001°02'816.3
2018-Jun-02 09:00N 50°27' W 001°15'815.9
2018-Jun-02 08:30N 50°25' W 001°27'511.0
2018-Jun-02 08:00N 50°24' W 001°35'713.4
2018-Jun-02 07:30N 50°23' W 001°46'713.8
2018-Jun-02 07:01N 50°22' W 001°56'815.4
2018-Jun-02 06:30N 50°20' W 002°08'815.8
2018-Jun-02 06:00N 50°18' W 002°20'815.4
2018-Jun-02 05:30N 50°16' W 002°31'715.1
2018-Jun-02 05:00N 50°15' W 002°43'815.3
2018-Jun-02 04:30N 50°14' W 002°55'715.0
2018-Jun-02 04:00N 50°11' W 003°06'815.1
2018-Jun-02 03:30N 50°07' W 003°16'715.0
2018-Jun-02 03:00N 50°04' W 003°27'814.9
2018-Jun-02 02:30N 50°00' W 003°37'815.3
2018-Jun-02 01:59N 49°57' W 003°48'715.5
2018-Jun-02 01:30N 49°53' W 003°58'815.6
2018-Jun-02 01:00N 49°49' W 004°08'915.5
2018-Jun-02 00:24N 49°44' W 004°20'1015.6
2018-Jun-01 23:45N 49°38' W 004°33'515.7
2018-Jun-01 23:26N 49°35' W 004°39'715.8
2018-Jun-01 22:58N 49°31' W 004°49'715.9
2018-Jun-01 22:30N 49°27' W 004°59'815.9
2018-Jun-01 22:00N 49°23' W 005°09'916.2
2018-Jun-01 21:27N 49°18' W 005°20'  

Dump ship's entire track history